createdAt,value
2019-02-17T00:00:59.166Z,99.99
2019-02-17T00:01:59.159Z,99.99
2019-02-17T00:03:13.837Z,99.99
2019-02-17T00:03:59.190Z,99.99
2019-02-17T00:04:59.203Z,99.99
2019-02-17T00:05:59.216Z,99.99
2019-02-17T00:06:59.230Z,99.99
2019-02-17T00:07:59.245Z,99.99
2019-02-17T00:08:59.262Z,99.99
2019-02-17T00:09:59.276Z,99.99
2019-02-17T00:10:59.288Z,99.99
2019-02-17T00:11:59.325Z,99.99
2019-02-17T00:12:59.322Z,99.99
2019-02-17T00:13:59.334Z,99.99
2019-02-17T00:14:59.346Z,99.99
2019-02-17T00:15:59.357Z,99.99
2019-02-17T00:16:59.372Z,99.99
2019-02-17T00:17:59.397Z,99.99
2019-02-17T00:19:14.061Z,99.99
2019-02-17T00:19:59.416Z,99.99
2019-02-17T00:20:59.461Z,99.99
2019-02-17T00:21:59.444Z,99.99
2019-02-17T00:22:59.455Z,99.99
2019-02-17T00:23:59.468Z,99.99
2019-02-17T00:24:59.484Z,99.99
2019-02-17T00:25:59.500Z,99.99
2019-02-17T00:27:59.531Z,99.99
2019-02-17T00:29:02.162Z,99.99
2019-02-17T00:29:59.552Z,99.99
2019-02-17T00:31:59.646Z,99.99
2019-02-17T00:32:59.595Z,99.99
2019-02-17T00:33:59.678Z,99.99
2019-02-17T00:35:14.284Z,99.99
2019-02-17T00:35:59.643Z,99.99
2019-02-17T00:36:59.649Z,99.99
2019-02-17T00:37:59.664Z,99.99
2019-02-17T00:38:59.678Z,99.99
2019-02-17T00:39:59.692Z,99.99
2019-02-17T00:40:59.705Z,99.99
2019-02-17T00:41:59.731Z,99.99
2019-02-17T00:42:59.733Z,99.99
2019-02-17T00:43:59.747Z,99.99
2019-02-17T00:44:59.760Z,99.99
2019-02-17T00:45:59.776Z,99.99
2019-02-17T00:48:59.817Z,99.99
2019-02-17T00:49:59.833Z,99.99
2019-02-17T00:51:14.507Z,99.99
2019-02-17T00:51:59.860Z,99.99
2019-02-17T00:52:59.872Z,99.99
2019-02-17T00:53:59.886Z,99.99
2019-02-17T00:54:59.899Z,99.99
2019-02-17T00:55:59.912Z,99.99
2019-02-17T00:56:59.926Z,99.99
2019-02-17T00:57:59.939Z,99.99
2019-02-17T00:59:09.314Z,99.99
2019-02-17T00:59:59.969Z,99.99
2019-02-17T01:00:59.985Z,99.99
2019-02-17T01:02:00.004Z,99.99
2019-02-17T01:03:00.013Z,99.99
2019-02-17T01:05:00.041Z,99.99
2019-02-17T01:06:14.718Z,99.99
2019-02-17T01:07:00.069Z,99.99
2019-02-17T01:08:00.085Z,99.99
2019-02-17T01:09:00.096Z,99.99
2019-02-17T01:10:00.231Z,99.99
2019-02-17T01:11:00.125Z,99.99
2019-02-17T01:12:00.137Z,99.99
2019-02-17T01:13:00.151Z,99.99
2019-02-17T01:14:00.164Z,99.99
2019-02-17T01:15:00.237Z,99.99
2019-02-17T01:16:00.292Z,99.99
2019-02-17T01:17:00.207Z,99.99
2019-02-17T01:18:00.221Z,99.99
2019-02-17T01:20:00.397Z,99.99
2019-02-17T01:21:00.261Z,99.99
2019-02-17T01:22:00.330Z,99.99
2019-02-17T01:23:00.287Z,99.99
2019-02-17T01:24:00.302Z,99.99
2019-02-17T01:25:00.372Z,99.99
2019-02-17T01:26:00.327Z,99.99
2019-02-17T01:27:00.341Z,99.99
2019-02-17T01:28:00.355Z,99.99
2019-02-17T01:30:00.385Z,99.99
2019-02-17T01:31:00.395Z,99.99
2019-02-17T01:32:00.509Z,99.99
2019-02-17T01:33:00.426Z,99.99
2019-02-17T01:34:00.435Z,99.99
2019-02-17T01:36:00.468Z,99.99
2019-02-17T01:37:00.476Z,99.99
2019-02-17T01:38:15.152Z,99.99
2019-02-17T01:39:00.503Z,99.99
2019-02-17T01:40:00.541Z,99.99
2019-02-17T01:41:00.534Z,99.99
2019-02-17T01:42:00.551Z,99.99
2019-02-17T01:43:00.557Z,99.99
2019-02-17T01:44:00.569Z,99.99
2019-02-17T01:45:00.583Z,99.99
2019-02-17T01:46:00.597Z,99.99
2019-02-17T01:47:00.610Z,99.99
2019-02-17T01:48:00.625Z,99.99
2019-02-17T01:49:00.636Z,99.99
2019-02-17T01:50:00.692Z,99.99
2019-02-17T01:52:00.676Z,99.99
2019-02-17T01:53:00.445Z,99.99
2019-02-17T01:54:15.366Z,99.99
2019-02-17T01:55:00.718Z,99.99
2019-02-17T01:56:00.741Z,99.99
2019-02-17T01:57:00.744Z,99.99
2019-02-17T01:58:00.760Z,99.99
2019-02-17T01:59:00.814Z,99.99
2019-02-17T02:00:00.786Z,99.99
2019-02-17T02:01:00.800Z,99.99
2019-02-17T02:03:00.824Z,99.99
2019-02-17T02:04:00.836Z,99.99
2019-02-17T02:05:00.851Z,99.99
2019-02-17T02:06:00.621Z,99.99
2019-02-17T02:07:00.877Z,99.99
2019-02-17T02:08:00.893Z,99.99
2019-02-17T02:09:00.905Z,99.99
2019-02-17T02:10:15.580Z,99.99
2019-02-17T02:11:00.934Z,99.99
2019-02-17T02:12:00.948Z,99.99
2019-02-17T02:13:00.957Z,99.99
2019-02-17T02:14:00.971Z,99.99
2019-02-17T02:15:00.986Z,99.99
2019-02-17T02:16:00.999Z,99.99
2019-02-17T02:17:01.112Z,99.99
2019-02-17T02:19:01.038Z,99.99
2019-02-17T02:20:01.051Z,99.99
2019-02-17T02:21:01.064Z,99.99
2019-02-17T02:22:01.078Z,99.99
2019-02-17T02:24:01.118Z,99.99
2019-02-17T02:26:15.803Z,99.99
2019-02-17T02:27:01.145Z,99.99
2019-02-17T02:28:01.161Z,99.99
2019-02-17T02:29:01.173Z,99.99
2019-02-17T02:30:01.206Z,99.99
2019-02-17T02:31:01.206Z,99.99
2019-02-17T02:32:01.217Z,99.99
2019-02-17T02:33:01.240Z,99.99
2019-02-17T02:34:01.241Z,99.99
2019-02-17T02:35:01.268Z,99.99
2019-02-17T02:36:01.270Z,99.99
2019-02-17T02:37:01.283Z,99.99
2019-02-17T02:38:01.293Z,99.99
2019-02-17T02:39:01.311Z,99.99
2019-02-17T02:40:01.342Z,99.99
2019-02-17T02:41:15.998Z,99.99
2019-02-17T02:42:01.351Z,99.99
2019-02-17T02:43:01.367Z,99.99
2019-02-17T02:44:01.376Z,99.99
2019-02-17T02:45:01.391Z,99.99
2019-02-17T02:46:01.405Z,99.99
2019-02-17T02:47:01.415Z,99.99
2019-02-17T02:49:01.445Z,99.99
2019-02-17T02:50:01.535Z,99.99
2019-02-17T02:51:01.474Z,99.99
2019-02-17T02:52:01.484Z,99.99
2019-02-17T02:53:01.505Z,99.99
2019-02-17T02:56:01.552Z,99.99
2019-02-17T02:57:01.551Z,99.99
2019-02-17T02:58:01.565Z,99.99
2019-02-17T02:59:01.587Z,99.99
2019-02-17T03:00:01.604Z,99.99
2019-02-17T03:01:01.603Z,99.99
2019-02-17T03:02:01.625Z,99.99
2019-02-17T03:03:01.630Z,99.99
2019-02-17T03:04:01.646Z,99.99
2019-02-17T03:05:01.664Z,99.99
2019-02-17T03:06:01.687Z,99.99
2019-02-17T03:07:01.686Z,99.99
2019-02-17T03:08:01.700Z,99.99
2019-02-17T03:09:01.714Z,99.99
2019-02-17T03:11:01.743Z,99.99
2019-02-17T03:12:01.751Z,99.99
2019-02-17T03:13:16.425Z,99.99
2019-02-17T03:14:01.782Z,99.99
2019-02-17T03:15:01.898Z,99.99
2019-02-17T03:16:01.806Z,99.99
2019-02-17T03:17:03.305Z,99.99
2019-02-17T03:18:01.831Z,99.99
2019-02-17T03:19:01.842Z,99.99
2019-02-17T03:20:01.866Z,99.99
2019-02-17T03:21:01.869Z,99.99
2019-02-17T03:22:01.885Z,99.99
2019-02-17T03:23:01.895Z,99.99
2019-02-17T03:24:01.911Z,99.99
2019-02-17T03:25:01.925Z,99.99
2019-02-17T03:26:01.934Z,99.99
2019-02-17T03:27:01.705Z,99.99
2019-02-17T03:28:01.962Z,99.99
2019-02-17T03:29:16.639Z,99.99
2019-02-17T03:30:07.754Z,99.99
2019-02-17T03:31:02.019Z,99.99
2019-02-17T03:32:02.021Z,99.99
2019-02-17T03:33:02.036Z,99.99
2019-02-17T03:34:02.045Z,99.99
2019-02-17T03:35:02.056Z,99.99
2019-02-17T03:36:02.069Z,99.99
2019-02-17T03:37:02.098Z,99.99
2019-02-17T03:38:02.100Z,99.99
2019-02-17T03:39:02.119Z,99.99
2019-02-17T03:41:02.144Z,99.99
2019-02-17T03:43:02.188Z,99.99
2019-02-17T03:44:02.190Z,99.99
2019-02-17T03:45:16.847Z,99.99
2019-02-17T03:46:02.202Z,99.99
2019-02-17T03:47:02.216Z,99.99
2019-02-17T03:48:02.229Z,99.99
2019-02-17T03:49:02.242Z,99.99
2019-02-17T03:50:02.255Z,99.99
2019-02-17T03:51:02.264Z,99.99
2019-02-17T03:52:02.279Z,99.99
2019-02-17T03:54:02.303Z,99.99
2019-02-17T03:55:02.318Z,99.99
2019-02-17T03:56:02.328Z,99.99
2019-02-17T03:57:02.352Z,99.99
2019-02-17T03:58:02.375Z,99.99
2019-02-17T03:59:02.380Z,99.99
2019-02-17T04:00:02.406Z,99.99
2019-02-17T04:01:17.056Z,99.99
2019-02-17T04:02:02.408Z,99.99
2019-02-17T04:03:02.423Z,99.99
2019-02-17T04:04:02.433Z,99.99
2019-02-17T04:05:02.445Z,99.99
2019-02-17T04:06:02.457Z,99.99
2019-02-17T04:07:02.475Z,99.99
2019-02-17T04:08:02.483Z,99.99
2019-02-17T04:10:02.687Z,99.99
2019-02-17T04:11:02.525Z,99.99
2019-02-17T04:12:02.540Z,99.99
2019-02-17T04:13:02.557Z,99.99
2019-02-17T04:14:02.568Z,99.99
2019-02-17T04:15:02.762Z,99.99
2019-02-17T04:16:17.251Z,99.99
2019-02-17T04:17:02.605Z,99.99
2019-02-17T04:18:02.618Z,99.99
2019-02-17T04:19:02.639Z,99.99
2019-02-17T04:20:02.739Z,99.99
2019-02-17T04:21:02.653Z,99.99
2019-02-17T04:22:02.664Z,99.99
2019-02-17T04:23:02.680Z,99.99
2019-02-17T04:24:02.694Z,99.99
2019-02-17T04:25:02.702Z,99.99
2019-02-17T04:26:02.753Z,99.99
2019-02-17T04:27:02.734Z,99.99
2019-02-17T04:28:02.745Z,99.99
2019-02-17T04:29:02.782Z,99.99
2019-02-17T04:30:02.932Z,99.99
2019-02-17T04:31:02.780Z,99.99
2019-02-17T04:32:02.807Z,99.99
2019-02-17T04:33:02.805Z,99.99
2019-02-17T04:34:02.824Z,99.99
2019-02-17T04:35:02.961Z,99.99
2019-02-17T04:36:02.843Z,99.99
2019-02-17T04:37:02.857Z,99.99
2019-02-17T04:40:02.904Z,99.99
2019-02-17T04:41:02.909Z,99.99
2019-02-17T04:43:03.017Z,99.99
2019-02-17T04:45:02.961Z,99.99
2019-02-17T04:46:02.973Z,99.99
2019-02-17T04:47:02.983Z,99.99
2019-02-17T04:48:17.658Z,99.99
2019-02-17T04:49:03.011Z,99.99
2019-02-17T04:50:03.034Z,99.99
2019-02-17T04:51:03.038Z,99.99
2019-02-17T04:52:03.046Z,99.99
2019-02-17T04:53:03.064Z,99.99
2019-02-17T04:54:03.073Z,99.99
2019-02-17T04:55:03.087Z,99.99
2019-02-17T04:56:03.101Z,99.99
2019-02-17T04:57:03.124Z,99.99
2019-02-17T04:58:03.124Z,99.99
2019-02-17T04:59:03.146Z,99.99
2019-02-17T05:00:03.152Z,99.99
2019-02-17T05:01:03.198Z,99.99
2019-02-17T05:03:03.186Z,99.99
2019-02-17T05:04:17.862Z,99.99
2019-02-17T05:05:03.212Z,99.99
2019-02-17T05:06:03.227Z,99.99
2019-02-17T05:07:03.240Z,99.99
2019-02-17T05:08:03.251Z,99.99
2019-02-17T05:09:03.261Z,99.99
2019-02-17T05:10:03.277Z,99.99
2019-02-17T05:11:03.287Z,99.99
2019-02-17T05:12:03.299Z,99.99
2019-02-17T05:13:03.311Z,99.99
2019-02-17T05:14:03.323Z,99.99
2019-02-17T05:15:03.346Z,99.99
2019-02-17T05:18:03.383Z,99.99
2019-02-17T05:19:03.387Z,99.99
2019-02-17T05:20:18.061Z,99.99
2019-02-17T05:21:03.412Z,99.99
2019-02-17T05:22:03.436Z,99.99
2019-02-17T05:23:03.442Z,99.99
2019-02-17T05:24:03.453Z,99.99
2019-02-17T05:25:03.475Z,99.99
2019-02-17T05:26:03.489Z,99.99
2019-02-17T05:27:03.490Z,99.99
2019-02-17T05:28:03.504Z,99.99
2019-02-17T05:29:03.516Z,99.99
2019-02-17T05:30:03.534Z,99.99
2019-02-17T05:31:03.535Z,99.99
2019-02-17T05:33:03.582Z,99.99
2019-02-17T05:34:03.582Z,99.99
2019-02-17T05:35:03.594Z,99.99
2019-02-17T05:36:18.260Z,99.99
2019-02-17T05:37:03.612Z,99.99
2019-02-17T05:38:03.629Z,99.99
2019-02-17T05:39:03.638Z,99.99
2019-02-17T05:40:03.653Z,99.99
2019-02-17T05:41:03.662Z,99.99
2019-02-17T05:42:03.687Z,99.99
2019-02-17T05:43:03.684Z,99.99
2019-02-17T05:44:03.700Z,99.99
2019-02-17T05:45:03.717Z,99.99
2019-02-17T05:46:03.728Z,99.99
2019-02-17T05:47:03.736Z,99.99
2019-02-17T05:48:03.751Z,99.99
2019-02-17T05:49:03.774Z,99.99
2019-02-17T05:50:03.532Z,99.99
2019-02-17T05:51:18.448Z,99.99
2019-02-17T05:52:03.806Z,99.99
2019-02-17T05:53:03.817Z,99.99
2019-02-17T05:54:03.828Z,99.99
2019-02-17T05:55:03.840Z,99.99
2019-02-17T05:56:03.858Z,99.99
2019-02-17T05:57:03.862Z,99.99
2019-02-17T05:58:03.872Z,99.99
2019-02-17T06:00:03.911Z,99.99
2019-02-17T06:01:07.382Z,99.99
2019-02-17T06:02:03.920Z,99.99
2019-02-17T06:03:03.944Z,99.99
2019-02-17T06:04:03.947Z,99.99
2019-02-17T06:05:03.961Z,99.99
2019-02-17T06:06:03.979Z,99.99
2019-02-17T06:07:04.059Z,99.99
2019-02-17T06:08:04.002Z,99.99
2019-02-17T06:09:04.011Z,99.99
2019-02-17T06:10:04.023Z,99.99
2019-02-17T06:11:04.036Z,99.99
2019-02-17T06:12:04.051Z,99.99
2019-02-17T06:13:04.058Z,99.99
2019-02-17T06:14:03.941Z,99.99
2019-02-17T06:15:04.087Z,99.99
2019-02-17T06:16:04.132Z,99.99
2019-02-17T06:17:04.114Z,99.99
2019-02-17T06:18:04.129Z,99.99
2019-02-17T06:19:04.130Z,99.99
2019-02-17T06:21:04.157Z,99.99
2019-02-17T06:22:04.170Z,99.99
2019-02-17T06:23:18.841Z,99.99
2019-02-17T06:24:04.192Z,99.99
2019-02-17T06:25:04.212Z,99.99
2019-02-17T06:26:04.246Z,99.99
2019-02-17T06:27:04.228Z,99.99
2019-02-17T06:28:04.241Z,99.99
2019-02-17T06:29:04.256Z,99.99
2019-02-17T06:30:06.286Z,99.99
2019-02-17T06:31:13.634Z,99.99
2019-02-17T06:32:04.293Z,99.99
2019-02-17T06:33:04.306Z,99.99
2019-02-17T06:34:04.330Z,99.99
2019-02-17T06:35:04.336Z,99.99
2019-02-17T06:36:04.442Z,99.99
2019-02-17T06:37:04.352Z,99.99
2019-02-17T06:38:04.368Z,99.99
2019-02-17T06:39:19.039Z,99.99
2019-02-17T06:40:04.389Z,99.99
2019-02-17T06:41:04.403Z,99.99
2019-02-17T06:42:04.419Z,99.99
2019-02-17T06:43:04.531Z,99.99
2019-02-17T06:44:04.439Z,99.99
2019-02-17T06:45:04.467Z,99.99
2019-02-17T06:47:04.511Z,99.99
2019-02-17T06:48:04.495Z,99.99
2019-02-17T06:49:04.502Z,99.99
2019-02-17T06:50:04.515Z,99.99
2019-02-17T06:51:04.527Z,99.99
2019-02-17T06:52:04.548Z,99.99
2019-02-17T06:53:04.552Z,99.99
2019-02-17T06:54:04.565Z,99.99
2019-02-17T06:55:19.244Z,99.99
2019-02-17T06:56:04.591Z,99.99
2019-02-17T06:57:04.603Z,99.99
2019-02-17T06:58:04.618Z,99.99
2019-02-17T06:59:04.637Z,99.99
2019-02-17T07:01:04.658Z,99.99
2019-02-17T07:02:04.674Z,99.99
2019-02-17T07:03:04.677Z,99.99
2019-02-17T07:04:04.702Z,99.99
2019-02-17T07:07:04.736Z,99.99
2019-02-17T07:08:04.765Z,99.99
2019-02-17T07:09:07.233Z,99.99
2019-02-17T07:10:04.767Z,99.99
2019-02-17T07:11:19.480Z,99.99
2019-02-17T07:12:04.634Z,99.99
2019-02-17T07:13:04.815Z,99.99
2019-02-17T07:14:04.824Z,99.99
2019-02-17T07:15:04.836Z,99.99
2019-02-17T07:16:04.847Z,99.99
2019-02-17T07:17:04.863Z,99.99
2019-02-17T07:18:04.974Z,99.99
2019-02-17T07:19:04.887Z,99.99
2019-02-17T07:20:04.901Z,99.99
2019-02-17T07:21:04.955Z,99.99
2019-02-17T07:22:04.930Z,99.99
2019-02-17T07:23:04.944Z,99.99
2019-02-17T07:24:04.960Z,99.99
2019-02-17T07:25:04.975Z,99.99
2019-02-17T07:26:19.751Z,99.99
2019-02-17T07:27:05.010Z,99.99
2019-02-17T07:28:05.020Z,99.99
2019-02-17T07:29:05.041Z,99.99
2019-02-17T07:30:05.049Z,99.99
2019-02-17T07:31:05.063Z,99.99
2019-02-17T07:32:05.077Z,99.99
2019-02-17T07:33:05.093Z,99.99
2019-02-17T07:34:05.111Z,99.99
2019-02-17T07:35:05.127Z,99.99
2019-02-17T07:36:05.152Z,99.99
2019-02-17T07:37:05.165Z,99.99
2019-02-17T07:38:04.921Z,99.99
2019-02-17T07:39:05.183Z,99.99
2019-02-17T07:40:05.212Z,99.99
2019-02-17T07:41:05.216Z,99.99
2019-02-17T07:42:05.234Z,99.99
2019-02-17T07:43:05.249Z,99.99
2019-02-17T07:44:05.278Z,99.99
2019-02-17T07:45:05.330Z,99.99
2019-02-17T07:46:05.300Z,99.99
2019-02-17T07:47:05.315Z,99.99
2019-02-17T07:48:05.334Z,99.99
2019-02-17T07:49:05.343Z,99.99
2019-02-17T07:50:05.367Z,99.99
2019-02-17T07:51:05.383Z,99.99
2019-02-17T07:52:05.401Z,99.99
2019-02-17T07:53:05.412Z,99.99
2019-02-17T07:54:05.422Z,99.99
2019-02-17T07:56:05.464Z,99.99
2019-02-17T07:57:05.480Z,99.99
2019-02-17T07:58:20.153Z,99.99
2019-02-17T07:59:05.507Z,99.99
2019-02-17T08:00:05.622Z,99.99
2019-02-17T08:01:07.244Z,99.99
2019-02-17T08:02:05.556Z,99.82
2019-02-17T08:03:05.572Z,99.99
2019-02-17T08:04:05.589Z,98.87
2019-02-17T08:05:05.616Z,98.87
2019-02-17T08:07:05.841Z,98.77
2019-02-17T08:08:05.657Z,98.68
2019-02-17T08:09:05.670Z,98.44
2019-02-17T08:10:05.693Z,97.59
2019-02-17T08:11:06.699Z,97.31
2019-02-17T08:12:05.724Z,97.12
2019-02-17T08:13:05.736Z,97.12
2019-02-17T08:14:20.418Z,96.73
2019-02-17T08:15:07.285Z,97.31
2019-02-17T08:16:05.786Z,97.21
2019-02-17T08:17:05.804Z,96.73
2019-02-17T08:18:05.822Z,96.55
2019-02-17T08:19:05.837Z,95.98
2019-02-17T08:20:05.855Z,96.17
2019-02-17T08:21:05.921Z,95.5
2019-02-17T08:22:05.891Z,95.41
2019-02-17T08:23:05.904Z,94.74
2019-02-17T08:24:05.948Z,95.12
2019-02-17T08:25:05.938Z,94.6
2019-02-17T08:26:05.955Z,93.65
2019-02-17T08:27:07.103Z,93.75
2019-02-17T08:28:05.994Z,93.84
2019-02-17T08:29:06.037Z,93.18
2019-02-17T08:30:20.686Z,93.46
2019-02-17T08:31:06.044Z,93.46
2019-02-17T08:32:06.058Z,92.52
2019-02-17T08:33:06.072Z,92.61
2019-02-17T08:34:06.090Z,92.23
2019-02-17T08:35:06.110Z,91.85
2019-02-17T08:36:06.126Z,92.23
2019-02-17T08:39:06.176Z,90.9
2019-02-17T08:40:06.194Z,91
2019-02-17T08:41:06.222Z,91.38
2019-02-17T08:43:06.248Z,90.85
2019-02-17T08:44:06.264Z,91.14
2019-02-17T08:45:06.279Z,91.24
2019-02-17T08:46:20.959Z,90.09
2019-02-17T08:47:06.314Z,89.14
2019-02-17T08:48:06.436Z,89.81
2019-02-17T08:49:06.347Z,89.33
2019-02-17T08:50:06.365Z,89.28
2019-02-17T08:51:06.383Z,88.9
2019-02-17T08:52:06.402Z,88.62
2019-02-17T08:53:06.433Z,88.53
2019-02-17T08:54:06.436Z,87.95
2019-02-17T08:55:06.461Z,87.67
2019-02-17T08:56:06.469Z,86.91
2019-02-17T08:57:06.493Z,86.82
2019-02-17T08:58:06.510Z,86.72
2019-02-17T08:59:06.527Z,87.57
2019-02-17T09:00:06.542Z,86.57
2019-02-17T09:01:21.224Z,86.19
2019-02-17T09:02:08.728Z,85.91
2019-02-17T09:03:06.594Z,85.91
2019-02-17T09:04:06.613Z,85.91
2019-02-17T09:05:06.631Z,85.62
2019-02-17T09:06:06.660Z,85.05
2019-02-17T09:07:08.788Z,85.05
2019-02-17T09:08:06.696Z,84.86
2019-02-17T09:09:06.704Z,84.1
2019-02-17T09:10:06.720Z,84.48
2019-02-17T09:11:06.738Z,84.86
2019-02-17T09:12:06.760Z,84.05
2019-02-17T09:13:06.776Z,83.67
2019-02-17T09:14:06.795Z,83.39
2019-02-17T09:15:06.812Z,83.19
2019-02-17T09:16:06.830Z,83.39
2019-02-17T09:17:06.849Z,83.48
2019-02-17T09:18:06.867Z,83.1
2019-02-17T09:19:06.888Z,82.62
2019-02-17T09:20:07.988Z,82.62
2019-02-17T09:21:06.922Z,82.62
2019-02-17T09:22:06.941Z,82.24
2019-02-17T09:23:06.970Z,82.62
2019-02-17T09:24:06.982Z,83
2019-02-17T09:25:06.996Z,82.62
2019-02-17T09:26:07.014Z,81.96
2019-02-17T09:27:07.034Z,82.81
2019-02-17T09:28:07.053Z,82.53
2019-02-17T09:29:07.070Z,81.96
2019-02-17T09:30:07.090Z,82.62
2019-02-17T09:31:07.107Z,81.86
2019-02-17T09:32:15.905Z,82.28
2019-02-17T09:33:21.809Z,82.48
2019-02-17T09:34:07.164Z,81.62
2019-02-17T09:35:07.187Z,81.05
2019-02-17T09:36:07.201Z,81.43
2019-02-17T09:37:07.223Z,81.71
2019-02-17T09:39:07.258Z,81.09
2019-02-17T09:40:07.276Z,80.61
2019-02-17T09:41:07.298Z,80.61
2019-02-17T09:42:07.343Z,80.9
2019-02-17T09:43:07.400Z,80.86
2019-02-17T09:44:07.354Z,81.09
2019-02-17T09:45:07.371Z,80.42
2019-02-17T09:46:07.392Z,79.94
2019-02-17T09:47:07.411Z,80.33
2019-02-17T09:48:07.433Z,80.42
2019-02-17T09:49:22.111Z,79.28
2019-02-17T09:50:07.471Z,79.19
2019-02-17T09:51:07.485Z,79.09
2019-02-17T09:52:07.505Z,79.09
2019-02-17T09:53:07.522Z,78.33
2019-02-17T09:54:07.541Z,78.04
2019-02-17T09:55:07.566Z,78.37
2019-02-17T09:56:07.580Z,78.04
2019-02-17T09:57:07.602Z,78.65
2019-02-17T09:58:07.618Z,79.03
2019-02-17T09:59:07.637Z,78.37
2019-02-17T10:00:07.659Z,78.46
2019-02-17T10:01:07.730Z,78.27
2019-02-17T10:02:07.697Z,77.8
2019-02-17T10:03:07.715Z,77.51
2019-02-17T10:04:07.835Z,77.98
2019-02-17T10:05:22.419Z,77.51
2019-02-17T10:06:07.780Z,77.61
2019-02-17T10:07:07.798Z,77.13
2019-02-17T10:08:07.815Z,76.37
2019-02-17T10:09:07.835Z,76.18
2019-02-17T10:10:07.852Z,75.99
2019-02-17T10:12:07.993Z,77.61
2019-02-17T10:13:07.909Z,76.65
2019-02-17T10:14:07.930Z,77.03
2019-02-17T10:15:07.950Z,76.75
2019-02-17T10:18:08.010Z,76.46
2019-02-17T10:20:08.052Z,76.12
2019-02-17T10:21:22.731Z,77.26
2019-02-17T10:22:08.088Z,76.31
2019-02-17T10:23:08.114Z,76.5
2019-02-17T10:24:08.130Z,76.69
2019-02-17T10:25:08.146Z,76.59
2019-02-17T10:26:08.218Z,76.69
2019-02-17T10:27:08.289Z,77.17
2019-02-17T10:28:08.209Z,76.69
2019-02-17T10:29:08.231Z,76.12
2019-02-17T10:30:08.246Z,75.55
2019-02-17T10:31:08.266Z,75.64
2019-02-17T10:32:08.285Z,75.45
2019-02-17T10:33:08.305Z,75.16
2019-02-17T10:34:08.325Z,74.98
2019-02-17T10:35:08.348Z,74.69
2019-02-17T10:36:23.029Z,75.16
2019-02-17T10:37:08.399Z,76.03
2019-02-17T10:38:08.403Z,76.21
2019-02-17T10:39:08.425Z,75.01
2019-02-17T10:40:08.445Z,75.55
2019-02-17T10:41:08.466Z,74.82
2019-02-17T10:42:08.483Z,74.82
2019-02-17T10:43:08.504Z,74.79
2019-02-17T10:44:08.524Z,75.01
2019-02-17T10:45:08.541Z,75.49
2019-02-17T10:46:08.632Z,74.92
2019-02-17T10:47:08.581Z,74.73
2019-02-17T10:49:08.621Z,75.68
2019-02-17T10:50:08.650Z,74.92
2019-02-17T10:51:08.709Z,74.06
2019-02-17T10:52:08.682Z,73.96
2019-02-17T10:53:08.701Z,74.16
2019-02-17T10:54:08.720Z,74.06
2019-02-17T10:55:08.737Z,73.49
2019-02-17T10:56:08.757Z,74.06
2019-02-17T10:58:08.796Z,73.39
2019-02-17T10:59:08.816Z,73.68
2019-02-17T11:00:08.871Z,73.11
2019-02-17T11:02:08.875Z,73.58
2019-02-17T11:03:08.654Z,74.54
2019-02-17T11:04:08.913Z,73.49
2019-02-17T11:05:08.938Z,73.3
2019-02-17T11:06:08.957Z,72.82
2019-02-17T11:07:08.972Z,72.67
2019-02-17T11:08:23.656Z,73.05
2019-02-17T11:09:09.010Z,73.62
2019-02-17T11:10:09.034Z,72.76
2019-02-17T11:11:09.050Z,73.11
2019-02-17T11:12:09.076Z,72.76
2019-02-17T11:13:09.089Z,72.76
2019-02-17T11:14:09.109Z,72.76
2019-02-17T11:15:09.127Z,73.05
2019-02-17T11:16:09.147Z,72.48
2019-02-17T11:18:09.237Z,72.67
2019-02-17T11:19:09.207Z,73.62
2019-02-17T11:20:09.225Z,73.81
2019-02-17T11:21:09.248Z,74.38
2019-02-17T11:23:09.284Z,73.14
2019-02-17T11:24:23.967Z,72.48
2019-02-17T11:25:09.323Z,72.86
2019-02-17T11:26:09.343Z,72.48
2019-02-17T11:27:09.362Z,71.62
2019-02-17T11:28:09.381Z,72.57
2019-02-17T11:29:09.413Z,71.91
2019-02-17T11:30:09.423Z,71.72
2019-02-17T11:31:09.439Z,71.14
2019-02-17T11:32:09.460Z,71.52
2019-02-17T11:33:09.477Z,71.72
2019-02-17T11:34:09.498Z,71.62
2019-02-17T11:35:09.272Z,71.33
2019-02-17T11:36:09.536Z,71.52
2019-02-17T11:39:09.596Z,71.52
2019-02-17T11:40:24.278Z,71.62
2019-02-17T11:41:09.634Z,71.52
2019-02-17T11:42:09.653Z,71.52
2019-02-17T11:43:09.687Z,71.14
2019-02-17T11:44:09.692Z,71.62
2019-02-17T11:45:09.712Z,71.23
2019-02-17T11:46:09.734Z,71.43
2019-02-17T11:47:09.947Z,72.38
2019-02-17T11:48:09.770Z,72.19
2019-02-17T11:49:09.790Z,72.57
2019-02-17T11:50:09.809Z,72.48
2019-02-17T11:51:09.830Z,72.38
2019-02-17T11:53:09.867Z,71.81
2019-02-17T11:54:09.888Z,71.62
2019-02-17T11:55:09.910Z,71.43
2019-02-17T11:56:24.590Z,71.81
2019-02-17T11:57:09.946Z,72.48
2019-02-17T11:58:09.967Z,72.96
2019-02-17T11:59:09.988Z,71.81
2019-02-17T12:00:10.005Z,71.62
2019-02-17T12:01:10.025Z,71.72
2019-02-17T12:02:10.047Z,71.72
2019-02-17T12:03:10.889Z,71.14
2019-02-17T12:04:10.084Z,71.52
2019-02-17T12:05:10.114Z,71.08
2019-02-17T12:06:10.121Z,69.93
2019-02-17T12:08:10.162Z,70.03
2019-02-17T12:09:10.184Z,70.22
2019-02-17T12:10:10.206Z,70.13
2019-02-17T12:11:24.886Z,69.46
2019-02-17T12:12:10.249Z,69.46
2019-02-17T12:13:10.261Z,69.74
2019-02-17T12:14:10.279Z,70.7
2019-02-17T12:15:10.313Z,71.56
2019-02-17T12:16:10.324Z,71.37
2019-02-17T12:17:10.340Z,70.89
2019-02-17T12:18:10.367Z,70.61
2019-02-17T12:19:10.381Z,69.93
2019-02-17T12:20:10.400Z,69.84
2019-02-17T12:21:10.421Z,70.7
2019-02-17T12:23:10.460Z,70.03
2019-02-17T12:25:10.502Z,69.37
2019-02-17T12:26:10.527Z,69.08
2019-02-17T12:27:10.549Z,69.84
2019-02-17T12:28:10.598Z,69.93
2019-02-17T12:29:10.579Z,68.7
2019-02-17T12:30:10.692Z,69.37
2019-02-17T12:31:10.665Z,69.37
2019-02-17T12:32:10.637Z,69.27
2019-02-17T12:33:21.890Z,69.17
2019-02-17T12:34:10.677Z,69.27
2019-02-17T12:35:10.695Z,69.27
2019-02-17T12:36:10.717Z,70.07
2019-02-17T12:37:10.834Z,69.74
2019-02-17T12:38:10.760Z,69.08
2019-02-17T12:39:10.781Z,68.51
2019-02-17T12:40:10.798Z,68.22
2019-02-17T12:41:10.815Z,67.93
2019-02-17T12:42:10.834Z,68.51
2019-02-17T12:43:25.518Z,69.56
2019-02-17T12:44:10.874Z,68.79
2019-02-17T12:46:10.913Z,68.12
2019-02-17T12:47:10.933Z,68.88
2019-02-17T12:48:10.956Z,68.7
2019-02-17T12:49:10.983Z,68.41
2019-02-17T12:50:10.997Z,68.63
2019-02-17T12:51:11.013Z,68.06
2019-02-17T12:52:11.035Z,67.97
2019-02-17T12:53:11.060Z,68.44
2019-02-17T12:54:11.073Z,67.97
2019-02-17T12:55:11.093Z,67.68
2019-02-17T12:56:11.114Z,67.58
2019-02-17T12:57:11.132Z,67.3
2019-02-17T12:58:11.173Z,67.4
2019-02-17T12:59:25.836Z,67.49
2019-02-17T13:00:11.194Z,67.21
2019-02-17T13:01:13.385Z,67.68
2019-02-17T13:02:11.232Z,67.49
2019-02-17T13:03:11.252Z,68.06
2019-02-17T13:04:11.274Z,68.26
2019-02-17T13:05:11.297Z,67.4
2019-02-17T13:06:11.314Z,68.44
2019-02-17T13:07:11.331Z,68.54
2019-02-17T13:08:11.351Z,67.97
2019-02-17T13:09:11.370Z,68.54
2019-02-17T13:13:11.454Z,67.21
2019-02-17T13:14:11.471Z,67.21
2019-02-17T13:15:26.154Z,67.01
2019-02-17T13:16:11.510Z,66.92
2019-02-17T13:17:11.531Z,67.11
2019-02-17T13:18:11.550Z,67.4
2019-02-17T13:19:11.573Z,67.21
2019-02-17T13:20:11.594Z,66.53
2019-02-17T13:21:11.609Z,65.96
2019-02-17T13:22:11.633Z,66.44
2019-02-17T13:23:11.649Z,66.82
2019-02-17T13:24:11.668Z,67.01
2019-02-17T13:25:11.691Z,66.63
2019-02-17T13:26:11.709Z,67.11
2019-02-17T13:28:11.754Z,66.53
2019-02-17T13:29:11.770Z,65.67
2019-02-17T13:30:11.789Z,64.91
2019-02-17T13:31:26.473Z,64.81
2019-02-17T13:32:11.829Z,64.72
2019-02-17T13:33:11.849Z,65.48
2019-02-17T13:34:11.871Z,65.33
2019-02-17T13:35:11.889Z,65.23
2019-02-17T13:36:11.911Z,64.94
2019-02-17T13:37:11.930Z,64.34
2019-02-17T13:38:11.947Z,64.28
2019-02-17T13:39:11.978Z,64.43
2019-02-17T13:40:11.991Z,65.42
2019-02-17T13:41:12.010Z,65.04
2019-02-17T13:42:12.029Z,64.94
2019-02-17T13:43:12.049Z,64.94
2019-02-17T13:44:12.070Z,65.23
2019-02-17T13:45:12.091Z,65.23
2019-02-17T13:46:26.774Z,65.71
2019-02-17T13:47:12.129Z,65.42
2019-02-17T13:48:12.151Z,65.52
2019-02-17T13:49:12.170Z,64.94
2019-02-17T13:50:12.191Z,65.33
2019-02-17T13:51:12.219Z,64.94
2019-02-17T13:52:12.230Z,64.43
2019-02-17T13:53:14.488Z,64.62
2019-02-17T13:54:12.288Z,64.72
2019-02-17T13:55:12.295Z,65.2